Time;durP1;ratioP1;P1;durP2;ratioP2;P2;SDS_P1;SDS_P2;PMS_P1;PMS_P2;Temp;Humidity;BMP_temperature;BMP_pressure;BME280_temperature;BME280_humidity;BME280_pressure;Samples;Min_cycle;Max_cycle;Signal;HPM_P1;HPM_P2
2022/02/25 00:02:23;;;;;;;1.67;1.17;;;14.90;49.20;;;;;;4999181;28;20429;-80
2022/02/25 00:04:51;;;;;;;2.03;1.20;;;14.80;49.10;;;;;;4997888;28;20457;-83
2022/02/25 00:07:19;;;;;;;2.70;1.60;;;14.80;49.30;;;;;;4994641;28;20470;-81
2022/02/25 00:09:47;;;;;;;2.30;1.40;;;14.80;49.20;;;;;;5002439;28;20437;-82
2022/02/25 00:12:16;;;;;;;1.90;1.07;;;14.80;49.20;;;;;;5004667;28;20477;-81
2022/02/25 00:14:44;;;;;;;3.03;1.40;;;14.80;49.20;;;;;;5000300;28;20465;-83
2022/02/25 00:17:12;;;;;;;2.60;1.30;;;14.80;49.30;;;;;;4998007;28;20487;-83
2022/02/25 00:19:40;;;;;;;1.87;1.50;;;14.80;49.20;;;;;;4998032;28;20446;-83
2022/02/25 00:22:08;;;;;;;1.63;1.50;;;14.70;49.10;;;;;;4997498;28;20491;-83
2022/02/25 00:24:36;;;;;;;2.07;1.30;;;14.80;49.20;;;;;;4996843;28;20500;-83
2022/02/25 00:27:04;;;;;;;2.40;1.57;;;14.70;49.30;;;;;;4997680;28;20492;-83
2022/02/25 00:29:34;;;;;;;1.60;1.50;;;14.70;49.10;;;;;;4996138;28;20477;-83
2022/02/25 00:32:02;;;;;;;5.63;1.57;;;14.70;49.20;;;;;;4997457;28;20433;-83
2022/02/25 00:34:30;;;;;;;3.70;1.27;;;14.70;49.20;;;;;;4996740;28;20476;-83
2022/02/25 00:36:58;;;;;;;1.40;1.30;;;14.70;49.20;;;;;;4997337;28;20480;-83
2022/02/25 00:39:25;;;;;;;2.20;1.50;;;14.80;49.20;;;;;;4996268;28;20942;-82
2022/02/25 00:41:53;;;;;;;2.87;1.20;;;14.70;49.10;;;;;;4996888;28;20437;-82
2022/02/25 00:44:22;;;;;;;2.53;1.43;;;14.70;49.70;;;;;;4996514;28;20457;-83
2022/02/25 00:47:11;;;;;;;2.03;1.33;;;14.60;49.20;;;;;;4997106;28;20437;-83
2022/02/25 00:49:40;;;;;;;1.23;1.13;;;14.60;49.30;;;;;;4998985;28;20483;-82
2022/02/25 00:52:08;;;;;;;4.93;1.70;;;14.60;49.40;;;;;;5001496;28;20476;-82
2022/02/25 00:54:36;;;;;;;2.93;1.60;;;14.60;50.00;;;;;;4999507;28;20474;-82
2022/02/25 00:57:04;;;;;;;1.30;1.20;;;14.60;49.40;;;;;;5000306;28;20449;-83
2022/02/25 00:59:32;;;;;;;7.43;1.70;;;14.60;49.20;;;;;;5000236;28;20444;-83
2022/02/25 01:05:31;;;;;;;1.83;1.20;;;14.60;49.50;;;;;;4935026;29;20447;-82
2022/02/25 01:08:03;;;;;;;3.43;1.30;;;14.50;49.40;;;;;;4957494;28;20474;-83
2022/02/25 01:10:31;;;;;;;4.47;1.87;;;14.50;49.40;;;;;;4981476;28;20454;-83
2022/02/25 01:12:59;;;;;;;3.97;1.50;;;14.50;49.40;;;;;;5000431;28;20453;-82
2022/02/25 01:15:27;;;;;;;3.83;1.70;;;14.50;49.40;;;;;;4999836;28;20485;-82
2022/02/25 01:17:53;;;;;;;2.63;1.67;;;14.50;49.40;;;;;;4998667;28;20457;-82
2022/02/25 01:20:21;;;;;;;1.50;1.20;;;14.50;49.40;;;;;;4999016;28;20453;-82
2022/02/25 01:22:51;;;;;;;4.10;1.37;;;14.50;49.50;;;;;;5000715;28;20441;-83
2022/02/25 01:25:19;;;;;;;2.17;1.30;;;14.50;49.40;;;;;;5000583;28;20476;-83
2022/02/25 01:27:47;;;;;;;2.70;1.53;;;14.50;49.40;;;;;;5000157;28;20480;-82
2022/02/25 01:30:18;;;;;;;1.53;1.30;;;14.50;49.20;;;;;;5001551;28;20442;-84
2022/02/25 01:32:48;;;;;;;2.27;1.87;;;14.50;49.30;;;;;;5000846;28;20441;-84
2022/02/25 01:35:16;;;;;;;2.50;1.40;;;14.50;49.90;;;;;;5001089;28;20509;-85
2022/02/25 01:37:44;;;;;;;5.23;1.37;;;14.50;49.30;;;;;;5000308;28;20437;-85
2022/02/25 01:40:14;;;;;;;1.50;1.40;;;14.60;49.20;;;;;;4999688;28;20528;-84
2022/02/25 01:42:45;;;;;;;2.93;1.60;;;14.50;49.20;;;;;;5000057;28;20444;-83
2022/02/25 01:45:13;;;;;;;3.90;1.60;;;14.50;49.20;;;;;;5000998;28;20531;-84
2022/02/25 01:47:41;;;;;;;1.83;1.47;;;14.60;49.10;;;;;;5002393;28;20438;-84
2022/02/25 01:50:10;;;;;;;3.23;1.40;;;14.60;49.20;;;;;;5002000;28;20473;-84
2022/02/25 01:52:38;;;;;;;2.53;1.33;;;14.60;49.20;;;;;;5001680;28;20519;-83
2022/02/25 01:55:07;;;;;;;2.30;1.47;;;14.60;49.20;;;;;;5001221;28;20472;-83
2022/02/25 01:57:37;;;;;;;3.97;1.50;;;14.60;49.10;;;;;;5001421;28;20429;-84
2022/02/25 02:00:06;;;;;;;2.47;1.57;;;14.60;49.10;;;;;;5000969;28;20473;-84
2022/02/25 02:02:36;;;;;;;2.20;1.33;;;14.60;49.10;;;;;;4999271;28;20418;-84
2022/02/25 02:05:04;;;;;;;3.17;1.50;;;14.60;49.10;;;;;;5001383;28;20461;-84
2022/02/25 02:07:32;;;;;;;5.63;1.60;;;14.50;49.00;;;;;;4994839;28;20987;-83
2022/02/25 02:10:00;;;;;;;5.07;1.67;;;14.60;49.30;;;;;;5000563;28;20500;-84
2022/02/25 02:12:28;;;;;;;4.70;1.33;;;14.50;49.10;;;;;;5000217;28;20444;-84
2022/02/25 02:14:57;;;;;;;2.83;1.20;;;14.50;49.10;;;;;;5000331;28;20469;-84
2022/02/25 02:17:25;;;;;;;4.00;1.53;;;14.60;49.20;;;;;;4999936;28;20465;-84
2022/02/25 02:19:54;;;;;;;2.80;1.70;;;14.50;49.10;;;;;;5000199;28;20441;-84
2022/02/25 02:22:25;;;;;;;3.17;1.73;;;14.50;49.20;;;;;;5000274;28;20442;-84
2022/02/25 02:24:56;;;;;;;1.23;1.13;;;14.50;49.10;;;;;;4999082;28;20492;-84
2022/02/25 02:28:17;;;;;;;3.73;1.70;;;14.50;49.10;;;;;;5000127;28;20449;-83
2022/02/25 02:30:12;;;;;;;3.70;1.47;;;14.50;49.10;;;;;;4999849;28;20481;-84
2022/02/25 02:32:40;;;;;;;2.73;1.40;;;14.50;49.00;;;;;;4999619;28;20500;-84
2022/02/25 02:35:09;;;;;;;3.47;1.40;;;14.40;48.90;;;;;;4999836;28;20537;-84
2022/02/25 02:37:38;;;;;;;2.63;1.20;;;14.50;49.10;;;;;;4999396;28;20445;-84
2022/02/25 02:40:07;;;;;;;4.30;1.57;;;14.50;49.20;;;;;;4999853;28;20528;-84
2022/02/25 02:42:35;;;;;;;2.63;1.30;;;14.50;49.70;;;;;;4998799;28;20512;-84
2022/02/25 02:45:03;;;;;;;5.13;1.40;;;14.50;49.00;;;;;;4999367;28;20491;-84
2022/02/25 02:47:31;;;;;;;3.47;1.60;;;14.50;49.10;;;;;;4999525;28;20484;-84
2022/02/25 02:49:59;;;;;;;1.63;1.20;;;14.50;49.00;;;;;;4999970;28;20497;-84
2022/02/25 02:52:27;;;;;;;2.40;1.23;;;14.50;49.00;;;;;;4999917;28;20469;-84
2022/02/25 02:54:56;;;;;;;3.17;1.30;;;14.50;49.10;;;;;;4999122;28;20515;-84
2022/02/25 02:57:24;;;;;;;2.60;1.50;;;14.50;49.00;;;;;;4999471;28;20441;-84
2022/02/25 02:59:52;;;;;;;2.40;1.70;;;14.50;49.00;;;;;;4998197;28;20480;-84
2022/02/25 03:02:20;;;;;;;3.53;1.50;;;14.50;49.00;;;;;;4999094;28;20932;-84
2022/02/25 03:04:48;;;;;;;2.13;1.47;;;14.50;49.00;;;;;;4998989;28;20483;-85
2022/02/25 03:07:16;;;;;;;2.93;1.20;;;14.50;49.00;;;;;;4998993;28;20445;-84
2022/02/25 03:09:44;;;;;;;4.57;1.80;;;14.50;49.00;;;;;;4999242;28;20527;-83
2022/02/25 03:12:13;;;;;;;6.73;1.83;;;14.60;48.80;;;;;;4998610;28;20485;-84
2022/02/25 03:14:42;;;;;;;4.13;1.43;;;14.50;48.80;;;;;;4999023;28;20438;-84
2022/02/25 03:17:14;;;;;;;3.33;1.40;;;14.60;48.80;;;;;;4998299;28;20484;-84
2022/02/25 03:19:42;;;;;;;1.47;1.27;;;14.50;48.70;;;;;;4995155;28;20968;-84
2022/02/25 03:22:12;;;;;;;3.37;1.77;;;14.50;48.70;;;;;;4998982;28;20441;-85
2022/02/25 03:24:40;;;;;;;5.73;1.60;;;14.50;48.70;;;;;;4999108;28;20441;-85
2022/02/25 03:27:08;;;;;;;1.53;1.20;;;14.60;48.80;;;;;;4998691;28;20453;-84
2022/02/25 03:29:37;;;;;;;3.80;1.57;;;14.60;48.70;;;;;;4998741;28;20477;-85
2022/02/25 03:32:06;;;;;;;3.03;1.40;;;14.50;48.60;;;;;;4997868;28;20461;-84
2022/02/25 03:34:34;;;;;;;2.47;1.53;;;14.50;48.70;;;;;;4998682;28;20469;-85
2022/02/25 03:37:02;;;;;;;3.70;1.70;;;14.60;48.60;;;;;;4998848;28;20457;-85
2022/02/25 03:39:30;;;;;;;3.50;1.23;;;14.60;48.70;;;;;;4998645;28;20438;-85
2022/02/25 03:41:57;;;;;;;3.17;1.40;;;14.60;48.80;;;;;;4998464;28;20510;-85
2022/02/25 03:44:29;;;;;;;2.63;1.20;;;14.60;48.40;;;;;;4997999;28;20472;-84
2022/02/25 03:46:58;;;;;;;3.67;1.43;;;14.60;48.60;;;;;;4999055;28;20468;-85
2022/02/25 03:49:26;;;;;;;3.10;1.40;;;14.50;48.50;;;;;;4997768;28;20549;-85
2022/02/25 03:51:54;;;;;;;3.63;1.53;;;14.50;48.60;;;;;;4998634;28;20429;-85
2022/02/25 03:54:22;;;;;;;3.13;1.23;;;14.50;48.60;;;;;;4998371;28;20430;-85
2022/02/25 03:56:50;;;;;;;3.80;1.33;;;14.50;48.60;;;;;;4998572;28;20492;-84
2022/02/25 03:59:18;;;;;;;3.33;1.60;;;14.40;48.60;;;;;;4998700;28;21027;-83
2022/02/25 04:01:51;;;;;;;5.00;1.30;;;14.40;48.60;;;;;;4998222;28;20441;-85
2022/02/25 04:04:21;;;;;;;3.73;1.60;;;14.40;48.60;;;;;;4998166;28;20462;-85
2022/02/25 04:06:49;;;;;;;1.33;1.23;;;14.40;48.70;;;;;;4997137;28;20480;-85
2022/02/25 04:09:18;;;;;;;3.60;1.73;;;14.50;48.50;;;;;;4998359;28;20438;-85
2022/02/25 04:11:46;;;;;;;4.20;1.60;;;14.50;48.60;;;;;;4998390;28;20483;-85
2022/02/25 04:14:15;;;;;;;5.43;1.60;;;14.50;48.50;;;;;;4998349;28;20433;-85
2022/02/25 04:16:42;;;;;;;1.53;1.33;;;14.50;48.50;;;;;;4998289;28;20465;-84
2022/02/25 04:19:10;;;;;;;2.40;1.40;;;14.50;48.40;;;;;;4997930;28;20469;-84
2022/02/25 04:21:40;;;;;;;2.77;1.33;;;14.40;48.30;;;;;;4997045;28;20452;-85
2022/02/25 04:24:07;;;;;;;2.53;1.40;;;14.40;48.40;;;;;;4996884;28;20476;-84
2022/02/25 04:26:35;;;;;;;3.80;1.57;;;14.40;48.50;;;;;;4997742;28;20480;-84
2022/02/25 04:29:04;;;;;;;4.93;1.37;;;14.40;48.40;;;;;;4998030;28;20464;-84
2022/02/25 04:31:32;;;;;;;2.53;1.20;;;14.40;48.60;;;;;;4997727;28;20542;-84
2022/02/25 04:34:00;;;;;;;4.53;1.67;;;14.30;48.40;;;;;;4997556;28;20471;-84
2022/02/25 04:36:28;;;;;;;3.60;1.47;;;14.30;48.50;;;;;;4996997;28;20511;-84
2022/02/25 04:38:57;;;;;;;1.60;1.30;;;14.30;48.50;;;;;;4998485;28;20452;-84
2022/02/25 04:41:25;;;;;;;2.43;1.23;;;14.20;48.40;;;;;;4997934;28;20469;-84
2022/02/25 04:43:53;;;;;;;1.33;1.20;;;14.20;48.50;;;;;;4997968;28;20557;-84
2022/02/25 04:46:22;;;;;;;2.80;1.40;;;14.20;48.60;;;;;;4997251;28;20453;-84
2022/02/25 04:48:50;;;;;;;5.20;1.20;;;14.20;48.60;;;;;;5001903;28;20497;-82
2022/02/25 04:51:17;;;;;;;4.93;1.57;;;14.20;48.70;;;;;;5002743;28;20473;-83
2022/02/25 04:53:46;;;;;;;3.93;1.50;;;14.20;48.60;;;;;;5001016;28;20488;-83
2022/02/25 04:56:15;;;;;;;1.87;1.40;;;14.20;48.60;;;;;;4998741;28;20520;-83
2022/02/25 04:58:43;;;;;;;6.17;1.60;;;14.20;48.50;;;;;;4998950;28;20491;-84
2022/02/25 05:01:11;;;;;;;3.10;1.47;;;14.10;48.50;;;;;;4998756;28;20442;-84
2022/02/25 05:03:40;;;;;;;3.63;1.60;;;14.20;48.60;;;;;;4997711;28;20497;-84
2022/02/25 05:06:08;;;;;;;2.40;1.43;;;14.10;48.40;;;;;;4998151;28;20471;-84
2022/02/25 05:08:36;;;;;;;1.77;1.33;;;14.10;48.60;;;;;;4997329;28;20493;-84
2022/02/25 05:11:04;;;;;;;2.73;1.37;;;14.10;48.60;;;;;;4998301;28;20468;-83
2022/02/25 05:13:33;;;;;;;6.23;1.83;;;14.10;48.60;;;;;;4998475;28;20484;-83
2022/02/25 05:21:47;;;;;;;4.30;1.30;;;14.00;48.60;;;;;;4973945;28;20470;-83
2022/02/25 05:24:15;;;;;;;2.60;1.20;;;14.00;48.60;;;;;;4971740;28;20521;-84
2022/02/25 05:26:43;;;;;;;2.93;1.50;;;14.00;48.70;;;;;;4986055;28;20476;-85
2022/02/25 05:29:12;;;;;;;4.77;1.57;;;14.00;48.70;;;;;;4998594;28;20481;-84
2022/02/25 05:31:40;;;;;;;3.43;1.20;;;14.00;48.50;;;;;;4998440;28;20481;-84
2022/02/25 05:34:08;;;;;;;4.30;1.30;;;14.00;48.70;;;;;;4997424;28;20484;-85
2022/02/25 05:36:36;;;;;;;2.53;1.27;;;13.90;48.60;;;;;;5000569;28;20468;-84
2022/02/25 05:39:04;;;;;;;3.73;1.50;;;13.90;48.80;;;;;;5001237;28;20501;-84
2022/02/25 05:41:32;;;;;;;3.23;1.30;;;13.90;48.80;;;;;;4999598;28;20540;-84
2022/02/25 05:43:59;;;;;;;2.87;1.47;;;13.90;48.80;;;;;;5001462;28;20448;-84
2022/02/25 05:46:29;;;;;;;4.80;1.60;;;13.90;48.70;;;;;;5001138;28;20501;-84
2022/02/25 05:48:57;;;;;;;4.13;1.33;;;13.90;49.20;;;;;;5000849;28;20464;-84
2022/02/25 05:51:25;;;;;;;5.47;1.73;;;13.90;48.70;;;;;;5000995;28;20481;-84
2022/02/25 05:53:54;;;;;;;5.60;1.30;;;13.90;48.70;;;;;;5000100;28;20460;-84
2022/02/25 05:56:24;;;;;;;3.03;1.50;;;13.90;48.60;;;;;;4996062;28;20457;-83
2022/02/25 05:58:55;;;;;;;4.97;1.53;;;13.90;48.80;;;;;;4992549;28;20467;-84
2022/02/25 06:01:23;;;;;;;1.87;1.17;;;13.90;48.70;;;;;;4996959;28;20468;-84
2022/02/25 06:03:53;;;;;;;3.60;1.37;;;13.90;48.50;;;;;;4996300;28;20432;-83
2022/02/25 06:06:22;;;;;;;5.90;1.30;;;13.90;48.60;;;;;;4996213;28;20457;-82
2022/02/25 06:08:50;;;;;;;5.80;1.30;;;13.90;48.40;;;;;;4996013;28;20481;-82
2022/02/25 06:11:17;;;;;;;3.83;1.40;;;14.00;48.50;;;;;;4995723;28;20531;-83
2022/02/25 06:13:45;;;;;;;8.87;1.73;;;13.90;48.50;;;;;;4995594;28;20941;-83
2022/02/25 06:16:13;;;;;;;5.40;1.80;;;13.90;48.40;;;;;;4993759;28;20504;-82
2022/02/25 06:18:42;;;;;;;2.90;1.20;;;13.90;48.40;;;;;;4996772;28;20445;-83
2022/02/25 06:21:11;;;;;;;4.93;1.37;;;14.00;48.50;;;;;;4995866;28;20445;-84
2022/02/25 06:23:39;;;;;;;2.80;1.40;;;14.00;48.50;;;;;;4995763;28;20449;-83
2022/02/25 06:26:07;;;;;;;5.17;1.93;;;14.00;48.40;;;;;;4995378;28;20469;-82
2022/02/25 06:28:35;;;;;;;5.47;1.37;;;14.00;48.40;;;;;;4995477;28;20484;-83
2022/02/25 06:31:03;;;;;;;4.33;1.80;;;14.00;48.20;;;;;;4994532;28;20641;-84
2022/02/25 06:33:32;;;;;;;2.60;1.40;;;14.00;48.20;;;;;;4995382;28;20435;-84
2022/02/25 06:35:59;;;;;;;4.77;2.00;;;14.00;48.10;;;;;;4995620;28;20489;-83
2022/02/25 06:38:29;;;;;;;4.07;1.67;;;14.00;48.20;;;;;;4995497;28;20438;-84
2022/02/25 06:40:56;;;;;;;4.20;1.50;;;14.10;48.20;;;;;;4995985;28;20460;-84
2022/02/25 06:43:24;;;;;;;7.33;1.87;;;14.00;48.10;;;;;;4995688;28;20465;-84
2022/02/25 06:45:52;;;;;;;4.10;1.70;;;14.10;48.10;;;;;;4995937;28;20481;-84
2022/02/25 06:48:20;;;;;;;5.17;1.50;;;14.10;48.20;;;;;;4993975;28;20953;-84
2022/02/25 06:50:48;;;;;;;3.00;1.40;;;14.10;48.10;;;;;;4995855;28;20468;-84
2022/02/25 06:53:17;;;;;;;7.17;1.50;;;14.10;47.90;;;;;;4996002;28;20437;-84
2022/02/25 06:55:46;;;;;;;4.80;1.63;;;14.10;48.10;;;;;;4995890;28;20461;-85
2022/02/25 06:58:15;;;;;;;4.90;2.03;;;14.10;48.10;;;;;;4995761;28;20453;-84
2022/02/25 07:00:43;;;;;;;6.63;1.67;;;14.10;48.20;;;;;;4992012;28;20975;-84
2022/02/25 07:03:12;;;;;;;3.50;1.60;;;14.10;48.10;;;;;;4996142;28;20580;-84
2022/02/25 07:05:40;;;;;;;3.33;1.73;;;14.10;48.00;;;;;;4995237;28;20511;-83
2022/02/25 07:08:08;;;;;;;2.70;1.23;;;14.20;48.00;;;;;;4988471;28;20449;-84
2022/02/25 07:10:36;;;;;;;3.97;1.60;;;14.20;47.90;;;;;;4995641;28;20873;-83
2022/02/25 07:13:07;;;;;;;2.67;1.70;;;14.20;47.90;;;;;;4995405;28;20959;-83
2022/02/25 07:15:36;;;;;;;4.60;1.77;;;14.30;47.90;;;;;;4995722;28;20477;-83
2022/02/25 07:18:04;;;;;;;2.40;1.40;;;14.30;47.80;;;;;;4996322;28;20429;-84
2022/02/25 07:20:32;;;;;;;4.60;1.57;;;14.30;47.60;;;;;;4996192;28;20449;-83
2022/02/25 07:23:01;;;;;;;2.43;1.47;;;14.30;47.80;;;;;;4995253;28;20476;-84
2022/02/25 07:25:29;;;;;;;6.17;2.03;;;14.30;47.70;;;;;;4995829;28;20452;-84
2022/02/25 07:27:57;;;;;;;4.40;1.60;;;14.30;47.80;;;;;;4997201;28;20540;-83
2022/02/25 07:30:28;;;;;;;5.03;2.00;;;14.30;48.30;;;;;;4996350;28;20979;-83
2022/02/25 07:32:56;;;;;;;7.30;2.27;;;14.30;47.90;;;;;;4995230;28;20511;-83
2022/02/25 07:35:24;;;;;;;3.63;1.73;;;14.30;47.60;;;;;;4994213;28;20465;-84
2022/02/25 07:37:51;;;;;;;7.23;2.30;;;14.30;47.70;;;;;;4994669;28;20486;-84
2022/02/25 07:40:22;;;;;;;8.30;1.80;;;14.30;47.70;;;;;;4995921;28;20442;-84
2022/02/25 07:42:50;;;;;;;1.87;1.60;;;14.30;47.60;;;;;;4996445;28;20473;-85
2022/02/25 07:45:18;;;;;;;3.80;1.97;;;14.20;47.50;;;;;;4995755;28;20489;-85
2022/02/25 07:47:47;;;;;;;3.23;1.80;;;14.30;47.70;;;;;;4996258;28;20434;-84
2022/02/25 07:50:15;;;;;;;4.40;1.83;;;14.30;47.80;;;;;;4995812;28;20487;-85
2022/02/25 07:52:43;;;;;;;5.57;1.90;;;14.20;47.60;;;;;;4994938;28;20477;-85
2022/02/25 07:55:12;;;;;;;5.33;2.30;;;14.20;47.80;;;;;;4995774;28;20476;-84
2022/02/25 07:57:40;;;;;;;6.93;2.03;;;14.20;47.60;;;;;;4996413;28;20430;-84
2022/02/25 08:00:24;;;;;;;5.93;2.00;;;14.20;47.80;;;;;;4996001;28;20445;-85
2022/02/25 08:02:54;;;;;;;2.67;2.00;;;14.20;47.80;;;;;;4996518;28;20425;-85
2022/02/25 08:05:22;;;;;;;4.53;2.20;;;14.10;47.80;;;;;;4996392;28;20468;-85
2022/02/25 08:07:51;;;;;;;2.77;1.80;;;14.10;48.00;;;;;;4995579;28;20459;-84
2022/02/25 08:10:18;;;;;;;7.80;2.20;;;14.10;48.00;;;;;;4996789;28;20445;-84
2022/02/25 08:12:46;;;;;;;5.83;2.10;;;14.10;48.10;;;;;;4996970;28;20496;-84
2022/02/25 08:15:15;;;;;;;4.43;1.80;;;14.10;48.00;;;;;;4996201;28;20453;-84
2022/02/25 08:17:43;;;;;;;3.67;2.00;;;14.10;48.10;;;;;;4997319;28;20429;-84
2022/02/25 08:20:13;;;;;;;3.90;2.03;;;14.10;48.10;;;;;;4996847;28;20433;-84
2022/02/25 08:22:41;;;;;;;2.80;1.80;;;14.10;48.20;;;;;;4996765;28;20464;-84
2022/02/25 08:25:09;;;;;;;4.37;2.10;;;14.10;48.00;;;;;;4995412;28;20501;-84
2022/02/25 08:27:37;;;;;;;4.60;2.20;;;14.10;48.10;;;;;;4996026;28;20505;-84
2022/02/25 08:30:06;;;;;;;4.20;1.93;;;14.20;48.10;;;;;;4996343;28;20441;-84
2022/02/25 08:32:35;;;;;;;2.40;1.83;;;14.20;48.00;;;;;;4996570;28;20473;-84
2022/02/25 08:35:03;;;;;;;6.33;2.40;;;14.20;48.10;;;;;;4998517;28;20477;-84
2022/02/25 08:37:32;;;;;;;3.93;2.07;;;14.10;48.10;;;;;;4997727;28;20441;-84
2022/02/25 08:40:00;;;;;;;4.73;2.17;;;14.20;48.10;;;;;;4996426;28;20449;-84
2022/02/25 08:42:28;;;;;;;2.13;1.50;;;14.10;48.20;;;;;;4996194;28;20453;-84
2022/02/25 08:44:56;;;;;;;6.90;2.30;;;14.30;48.30;;;;;;4996367;28;20457;-84
2022/02/25 08:47:24;;;;;;;2.80;1.80;;;14.40;48.40;;;;;;4996714;28;20885;-84
2022/02/25 08:49:52;;;;;;;3.00;1.63;;;14.60;48.30;;;;;;4990515;28;20477;-85
2022/02/25 08:52:20;;;;;;;5.43;2.17;;;14.80;48.10;;;;;;4996632;28;20559;-83
2022/02/25 08:54:50;;;;;;;7.33;2.40;;;15.00;47.80;;;;;;4996203;28;20453;-84
2022/02/25 08:57:19;;;;;;;4.80;1.80;;;15.20;47.60;;;;;;4995538;28;20457;-84
2022/02/25 08:59:47;;;;;;;3.47;1.67;;;15.30;47.20;;;;;;4997352;28;20450;-84
2022/02/25 09:02:14;;;;;;;2.60;1.67;;;15.40;46.90;;;;;;4996618;28;20516;-84
2022/02/25 09:04:43;;;;;;;4.20;1.90;;;15.40;46.80;;;;;;4996218;28;20459;-84
2022/02/25 09:07:11;;;;;;;4.43;1.97;;;15.50;47.00;;;;;;4995972;28;20453;-84
2022/02/25 09:09:40;;;;;;;4.47;1.70;;;15.50;46.90;;;;;;4995764;28;20449;-84
2022/02/25 09:12:10;;;;;;;3.63;1.93;;;15.60;46.80;;;;;;4999533;28;20433;-84
2022/02/25 09:14:38;;;;;;;3.53;1.73;;;15.60;46.90;;;;;;4999136;28;20441;-84
2022/02/25 09:17:07;;;;;;;5.07;1.97;;;15.50;46.70;;;;;;4999551;28;20460;-83
2022/02/25 09:19:35;;;;;;;5.33;1.70;;;15.60;47.10;;;;;;5000167;28;20532;-83
2022/02/25 09:22:04;;;;;;;2.83;1.60;;;15.80;47.20;;;;;;4999919;28;20441;-84
2022/02/25 09:24:32;;;;;;;3.03;1.80;;;16.10;46.80;;;;;;5000333;28;20488;-83
2022/02/25 09:27:00;;;;;;;4.57;2.00;;;16.30;46.30;;;;;;4999906;28;20445;-83
2022/02/25 09:29:29;;;;;;;5.13;2.40;;;16.50;46.20;;;;;;4998400;28;20449;-83
2022/02/25 09:31:57;;;;;;;5.67;1.80;;;16.70;45.90;;;;;;5002603;28;20449;-83
2022/02/25 09:34:25;;;;;;;5.20;1.83;;;16.70;45.80;;;;;;5008582;28;20469;-83
2022/02/25 09:36:53;;;;;;;5.07;2.17;;;16.80;46.00;;;;;;5008932;28;20441;-84
2022/02/25 09:39:21;;;;;;;3.37;1.60;;;17.00;45.90;;;;;;5002370;28;20472;-84
2022/02/25 09:41:51;;;;;;;4.77;2.40;;;17.10;45.70;;;;;;5002433;28;20438;-84
2022/02/25 09:44:19;;;;;;;7.67;1.93;;;17.40;45.70;;;;;;5001875;28;20438;-83
2022/02/25 09:46:48;;;;;;;3.77;1.63;;;17.40;45.70;;;;;;5000097;28;20469;-84
2022/02/25 09:49:18;;;;;;;4.60;2.63;;;17.20;45.80;;;;;;5000983;28;20445;-85
2022/02/25 09:51:46;;;;;;;4.90;2.20;;;17.20;45.80;;;;;;5006716;28;20496;-83
2022/02/25 09:54:16;;;;;;;4.00;2.00;;;17.10;45.70;;;;;;5009300;28;20496;-83
2022/02/25 09:56:46;;;;;;;3.80;2.03;;;17.10;46.00;;;;;;5009055;28;20461;-83
2022/02/25 09:59:14;;;;;;;5.60;2.20;;;17.20;46.10;;;;;;5008570;28;20445;-83
2022/02/25 10:01:42;;;;;;;3.40;2.03;;;17.30;45.90;;;;;;5005781;28;20453;-83
2022/02/25 10:04:12;;;;;;;6.47;2.30;;;17.40;45.90;;;;;;5004078;28;20437;-83
2022/02/25 10:06:40;;;;;;;5.43;2.03;;;17.60;46.20;;;;;;5003533;28;20454;-83
2022/02/25 10:09:12;;;;;;;8.50;2.20;;;17.80;45.50;;;;;;5002446;28;20840;-82
2022/02/25 10:11:59;;;;;;;3.70;1.90;;;17.90;45.80;;;;;;5002987;28;20433;-83
2022/02/25 10:14:30;;;;;;;6.60;2.20;;;18.10;46.00;;;;;;5002668;28;20543;-82
2022/02/25 10:17:07;;;;;;;2.50;1.60;;;18.00;46.00;;;;;;5002172;28;20487;-82
2022/02/25 10:19:36;;;;;;;2.80;1.70;;;17.70;46.40;;;;;;5001909;28;20999;-83
2022/02/25 10:22:24;;;;;;;7.70;2.30;;;17.70;46.60;;;;;;5001928;28;20437;-83
2022/02/25 10:24:53;;;;;;;5.77;2.23;;;17.80;46.60;;;;;;5002967;28;20485;-82
2022/02/25 10:27:28;;;;;;;6.30;2.00;;;17.70;46.50;;;;;;5003446;28;20503;-83
2022/02/25 10:30:01;;;;;;;6.13;2.03;;;17.60;46.20;;;;;;5002744;28;20461;-83
2022/02/25 10:32:32;;;;;;;6.47;2.23;;;17.60;46.40;;;;;;5003791;28;20425;-83
2022/02/25 10:35:20;;;;;;;5.83;2.40;;;17.50;46.30;;;;;;5003601;28;20532;-83
2022/02/25 10:38:01;;;;;;;2.37;1.90;;;17.50;46.40;;;;;;5005321;28;20442;-83
2022/02/25 10:40:30;;;;;;;3.43;1.63;;;17.40;46.40;;;;;;5005422;28;20449;-83
2022/02/25 10:42:58;;;;;;;6.57;1.77;;;17.40;46.50;;;;;;5004627;28;20487;-84
2022/02/25 10:45:29;;;;;;;4.37;1.90;;;17.30;46.50;;;;;;5004102;28;20444;-83
2022/02/25 10:48:01;;;;;;;7.30;1.80;;;17.10;46.50;;;;;;4999884;28;20425;-83
2022/02/25 10:50:31;;;;;;;4.33;1.50;;;17.10;46.80;;;;;;5001010;28;20449;-82
2022/02/25 10:52:59;;;;;;;4.57;1.80;;;17.00;46.70;;;;;;4999563;28;20453;-82
2022/02/25 10:55:28;;;;;;;3.80;1.90;;;17.00;47.00;;;;;;4999975;28;20445;-83
2022/02/25 10:57:57;;;;;;;7.87;2.03;;;16.90;46.90;;;;;;4996570;28;20441;-82
2022/02/25 11:00:26;;;;;;;5.20;1.77;;;16.80;47.20;;;;;;4998744;28;20449;-82
2022/02/25 11:02:56;;;;;;;3.43;2.17;;;16.80;47.80;;;;;;4999047;28;20441;-82
2022/02/25 11:05:25;;;;;;;3.30;2.03;;;16.80;47.40;;;;;;4999288;28;20520;-83
2022/02/25 11:07:57;;;;;;;2.90;1.80;;;16.80;47.50;;;;;;4997755;28;20472;-82
2022/02/25 11:10:26;;;;;;;3.13;1.77;;;16.80;47.60;;;;;;4998515;28;20429;-83
2022/02/25 11:12:55;;;;;;;3.07;1.57;;;16.80;47.50;;;;;;4997768;28;20434;-83
2022/02/25 11:15:24;;;;;;;4.20;1.90;;;16.90;47.60;;;;;;4999809;28;20473;-82
2022/02/25 11:17:51;;;;;;;2.47;1.60;;;17.00;47.30;;;;;;4999264;28;20429;-83
2022/02/25 11:20:21;;;;;;;5.00;1.70;;;17.10;47.60;;;;;;4998666;28;20508;-83
2022/02/25 11:22:52;;;;;;;4.73;1.80;;;17.50;48.40;;;;;;5004934;28;20437;-82
2022/02/25 11:25:21;;;;;;;3.13;1.57;;;18.20;48.40;;;;;;5003495;28;20472;-84
2022/02/25 11:27:49;;;;;;;3.43;1.70;;;19.30;48.10;;;;;;5003143;28;20508;-83
2022/02/25 11:30:22;;;;;;;4.00;1.53;;;20.50;46.60;;;;;;5004014;28;20433;-83
2022/02/25 11:32:57;;;;;;;2.50;1.50;;;21.70;44.80;;;;;;5004943;28;20441;-84
2022/02/25 11:35:27;;;;;;;2.30;1.80;;;22.70;43.50;;;;;;5003357;28;20486;-85
2022/02/25 11:38:04;;;;;;;3.20;1.50;;;23.20;42.10;;;;;;4999193;28;20453;-84
2022/02/25 11:40:59;;;;;;;2.73;1.60;;;22.50;40.60;;;;;;4997578;28;20463;-84
2022/02/25 11:43:52;;;;;;;4.33;2.07;;;21.80;41.40;;;;;;4978799;28;20434;-85
2022/02/25 11:46:23;;;;;;;3.43;2.03;;;21.50;43.00;;;;;;4991696;28;20858;-83
2022/02/25 11:48:52;;;;;;;3.13;1.70;;;21.10;42.90;;;;;;4997433;28;20544;-83
2022/02/25 11:51:42;;;;;;;3.30;1.83;;;20.80;43.40;;;;;;5002631;28;20469;-85
2022/02/25 11:54:40;;;;;;;3.80;1.90;;;20.40;43.70;;;;;;4997375;28;20515;-84
2022/02/25 11:57:24;;;;;;;3.20;1.70;;;20.20;44.40;;;;;;4998082;28;20472;-84
2022/02/25 12:00:29;;;;;;;3.53;1.50;;;20.00;44.40;;;;;;4998956;28;20440;-83
2022/02/25 12:03:14;;;;;;;1.90;1.20;;;19.80;44.60;;;;;;4998736;28;20437;-83
2022/02/25 12:05:43;;;;;;;2.97;1.73;;;19.60;44.80;;;;;;4997925;28;20456;-83
2022/02/25 12:08:31;;;;;;;3.73;1.70;;;19.60;44.90;;;;;;4998554;28;20432;-83
2022/02/25 12:11:02;;;;;;;2.90;1.60;;;19.40;45.10;;;;;;4997639;28;20449;-84
2022/02/25 12:13:31;;;;;;;1.87;1.40;;;19.30;45.00;;;;;;4999213;28;20472;-82
2022/02/25 12:15:59;;;;;;;2.80;1.60;;;19.20;45.20;;;;;;4999338;28;20507;-84
2022/02/25 12:18:40;;;;;;;2.00;1.37;;;19.50;46.30;;;;;;4999079;28;20457;-83
2022/02/25 12:21:11;;;;;;;4.47;1.30;;;21.80;45.30;;;;;;4999580;28;20488;-84
2022/02/25 12:23:43;;;;;;;5.07;1.50;;;22.80;41.50;;;;;;4999367;28;20437;-85
2022/02/25 12:26:11;;;;;;;2.27;1.60;;;22.40;40.80;;;;;;4998189;28;20520;-83
2022/02/25 12:28:47;;;;;;;3.27;1.30;;;21.80;41.00;;;;;;4997707;28;20453;-83
2022/02/25 12:31:17;;;;;;;4.00;1.80;;;21.10;41.70;;;;;;4998515;28;20955;-83
2022/02/25 12:33:57;;;;;;;2.10;1.33;;;20.60;42.30;;;;;;4981361;28;20508;-82
2022/02/25 12:36:43;;;;;;;4.83;1.60;;;20.40;43.20;;;;;;4999055;28;20508;-82
2022/02/25 12:39:14;;;;;;;3.03;1.30;;;20.20;43.60;;;;;;4998423;28;20503;-83
2022/02/25 12:41:48;;;;;;;3.70;1.50;;;21.00;45.00;;;;;;4999086;28;20496;-83
2022/02/25 12:44:18;;;;;;;5.03;1.60;;;23.20;43.70;;;;;;4996722;28;20484;-83
2022/02/25 12:46:47;;;;;;;2.33;1.20;;;24.80;41.00;;;;;;5001126;28;20468;-83
2022/02/25 12:49:17;;;;;;;2.87;1.50;;;26.10;38.60;;;;;;5002035;28;20423;-83
2022/02/25 12:51:45;;;;;;;1.43;1.33;;;27.00;37.10;;;;;;5002201;28;20423;-83
2022/02/25 12:54:14;;;;;;;1.63;1.10;;;27.60;35.90;;;;;;5001830;28;20473;-83
2022/02/25 12:56:43;;;;;;;1.53;1.43;;;27.70;34.20;;;;;;5001644;28;20488;-83
2022/02/25 12:59:12;;;;;;;3.87;1.60;;;27.00;34.50;;;;;;5001543;28;20454;-83
2022/02/25 13:01:48;;;;;;;1.90;1.27;;;26.50;35.00;;;;;;5000697;28;20511;-83
2022/02/25 13:04:18;;;;;;;1.40;1.10;;;25.60;36.40;;;;;;4994890;28;20412;-83
2022/02/25 13:06:46;;;;;;;1.60;1.27;;;24.90;37.40;;;;;;5000921;28;20474;-83
2022/02/25 13:09:16;;;;;;;2.83;1.57;;;24.60;37.80;;;;;;5000803;28;20436;-83
2022/02/25 13:11:49;;;;;;;2.90;1.30;;;24.10;38.20;;;;;;4998541;28;20887;-83